createdAt,value
2019-04-20T00:01:25.771Z,55.89
2019-04-20T00:05:27.478Z,56.11
2019-04-20T00:09:36.552Z,56.32
2019-04-20T00:13:47.719Z,56.78
2019-04-20T00:17:52.229Z,57.41
2019-04-20T00:22:13.677Z,57.57
2019-04-20T00:26:27.364Z,57.10
2019-04-20T00:30:48.138Z,57.32
2019-04-20T00:34:37.176Z,57.56
2019-04-20T00:38:42.653Z,58.19
2019-04-20T00:42:51.658Z,58.10
2019-04-20T00:47:04.917Z,58.11
2019-04-20T00:51:17.364Z,58.15
2019-04-20T00:55:06.390Z,58.48
2019-04-20T00:59:26.577Z,58.85
2019-04-20T01:03:33.906Z,59.09
2019-04-20T01:07:40.792Z,58.78
2019-04-20T01:11:42.180Z,58.67
2019-04-20T01:15:54.083Z,59.10
2019-04-20T01:19:52.792Z,58.66
2019-04-20T01:24:02.937Z,59.49
2019-04-20T01:28:24.195Z,59.47
2019-04-20T01:32:23.339Z,59.86
2019-04-20T01:36:36.798Z,59.59
2019-04-20T01:40:25.526Z,60.00
2019-04-20T01:44:36.869Z,59.55
2019-04-20T01:48:39.615Z,59.38
2019-04-20T01:52:56.475Z,59.25
2019-04-20T01:57:09.410Z,59.58
2019-04-20T02:01:16.594Z,59.23
2019-04-20T02:05:22.867Z,59.58
2019-04-20T02:09:26.017Z,60.15
2019-04-20T02:13:38.873Z,60.27
2019-04-20T02:17:43.545Z,59.88
2019-04-20T02:21:55.928Z,60.26
2019-04-20T02:25:50.070Z,60.36
2019-04-20T02:30:21.649Z,60.85
2019-04-20T02:34:39.607Z,60.84
2019-04-20T02:43:09.457Z,60.33
2019-04-20T02:47:14.728Z,60.32
2019-04-20T02:51:22.953Z,60.62
2019-04-20T02:55:32.218Z,60.38
2019-04-20T02:59:54.071Z,60.90
2019-04-20T03:03:20.503Z,60.83
2019-04-20T03:07:32.931Z,61.19
2019-04-20T03:11:52.949Z,61.29
2019-04-20T03:15:53.476Z,61.02
2019-04-20T03:19:50.575Z,61.03
2019-04-20T03:24:08.435Z,61.22
2019-04-20T03:28:10.302Z,61.15
2019-04-20T03:32:49.823Z,61.34
2019-04-20T03:36:47.210Z,61.29
2019-04-20T03:40:24.394Z,61.87
2019-04-20T03:44:21.002Z,62.43
2019-04-20T03:48:41.506Z,62.52
2019-04-20T03:53:10.640Z,61.63
2019-04-20T03:57:21.231Z,62.34
2019-04-20T04:02:01.672Z,62.45
2019-04-20T04:05:48.034Z,62.52
2019-04-20T04:10:00.790Z,63.16
2019-04-20T04:13:48.159Z,63.07
2019-04-20T04:17:53.155Z,63.17
2019-04-20T04:22:11.125Z,63.04
2019-04-20T04:26:24.567Z,62.87
2019-04-20T04:30:27.957Z,62.67
2019-04-20T04:34:39.112Z,62.50
2019-04-20T04:38:48.747Z,62.06
2019-04-20T04:42:54.872Z,61.34
2019-04-20T04:46:44.631Z,61.72
2019-04-20T04:50:50.893Z,62.25
2019-04-20T04:54:58.731Z,62.63
2019-04-20T04:58:58.200Z,63.01
2019-04-20T05:03:23.314Z,63.20
2019-04-20T05:07:26.698Z,63.33
2019-04-20T05:11:19.698Z,63.31
2019-04-20T05:15:37.850Z,62.89
2019-04-20T05:19:55.282Z,62.81
2019-04-20T05:23:53.418Z,62.67
2019-04-20T05:28:08.184Z,62.10
2019-04-20T05:32:02.736Z,61.48
2019-04-20T05:36:18.517Z,60.37
2019-04-20T05:40:29.264Z,57.66
2019-04-20T05:44:39.446Z,54.39
2019-04-20T05:48:45.724Z,54.28
2019-04-20T05:56:58.885Z,40.46
2019-04-20T06:01:05.572Z,36.37
2019-04-20T06:05:10.140Z,33.61
2019-04-20T06:09:15.641Z,31.87
2019-04-20T06:13:32.651Z,30.56
2019-04-20T06:18:05.126Z,29.45
2019-04-20T06:22:22.583Z,28.59
2019-04-20T06:30:43.242Z,27.14
2019-04-20T06:35:00.546Z,26.17
2019-04-20T06:39:12.928Z,25.80
2019-04-20T06:43:09.077Z,25.44
2019-04-20T06:47:18.778Z,24.44
2019-04-20T06:51:42.113Z,24.69
2019-04-20T06:55:51.198Z,24.44
2019-04-20T06:59:56.178Z,23.53
2019-04-20T07:04:24.782Z,23.84
2019-04-20T07:08:16.986Z,27.19
2019-04-20T07:12:12.515Z,30.26
2019-04-20T07:16:33.023Z,33.18
2019-04-20T07:20:49.091Z,34.47
2019-04-20T07:24:55.133Z,35.06
2019-04-20T07:28:58.972Z,36.46
2019-04-20T07:37:55.050Z,36.79
2019-04-20T07:41:41.979Z,36.79
2019-04-20T07:45:33.531Z,36.33
2019-04-20T07:49:40.425Z,38.84
2019-04-20T07:53:45.081Z,39.02
2019-04-20T07:57:55.109Z,37.70
2019-04-20T08:02:15.750Z,37.83
2019-04-20T08:06:25.055Z,38.28
2019-04-20T08:10:47.423Z,37.96
2019-04-20T08:14:56.839Z,38.18
2019-04-20T08:18:53.574Z,38.34
2019-04-20T08:23:09.273Z,37.85
2019-04-20T08:26:58.969Z,37.73
2019-04-20T08:31:30.127Z,37.14
2019-04-20T08:35:47.520Z,37.48
2019-04-20T08:39:58.332Z,37.91
2019-04-20T08:44:11.445Z,38.01
2019-04-20T08:48:12.865Z,37.91
2019-04-20T08:52:33.925Z,37.61
2019-04-20T08:56:13.117Z,33.90
2019-04-20T09:00:06.880Z,32.80
2019-04-20T09:04:18.613Z,31.36
2019-04-20T09:08:24.894Z,32.47
2019-04-20T09:12:43.629Z,30.88
2019-04-20T09:16:38.804Z,31.15
2019-04-20T09:20:48.717Z,30.79
2019-04-20T09:25:13.347Z,31.04
2019-04-20T09:29:04.149Z,31.33
2019-04-20T09:33:36.311Z,31.52
2019-04-20T09:37:43.132Z,29.48
2019-04-20T09:42:00.920Z,30.39
2019-04-20T09:46:02.095Z,30.48
2019-04-20T09:50:22.536Z,28.60
2019-04-20T09:54:31.244Z,29.06
2019-04-20T09:58:31.120Z,28.95
2019-04-20T10:02:30.938Z,28.96
2019-04-20T10:06:35.885Z,28.85
2019-04-20T10:10:42.033Z,29.30
2019-04-20T10:14:45.298Z,28.59
2019-04-20T10:18:53.508Z,28.74
2019-04-20T10:22:56.805Z,28.99
2019-04-20T10:27:03.060Z,29.36
2019-04-20T10:31:10.654Z,26.97
2019-04-20T10:35:18.596Z,26.65
2019-04-20T10:39:24.608Z,26.91
2019-04-20T10:43:30.211Z,26.87
2019-04-20T10:47:35.255Z,27.28
2019-04-20T10:51:40.152Z,27.38
2019-04-20T10:55:45.286Z,27.58
2019-04-20T10:59:51.926Z,28.24
2019-04-20T11:03:56.998Z,27.53
2019-04-20T11:08:02.292Z,27.40
2019-04-20T11:12:08.304Z,27.25
2019-04-20T11:16:14.767Z,26.70
2019-04-20T11:20:19.866Z,27.10
2019-04-20T11:24:26.058Z,27.96
2019-04-20T11:28:32.263Z,26.69
2019-04-20T11:32:37.966Z,27.20
2019-04-20T11:36:43.367Z,27.27
2019-04-20T11:41:02.511Z,27.73
2019-04-20T11:44:54.990Z,27.38
2019-04-20T11:48:59.864Z,27.20
2019-04-20T11:53:05.591Z,28.04
2019-04-20T11:57:11.358Z,28.31
2019-04-20T12:01:30.158Z,28.59
2019-04-20T12:05:38.135Z,28.08
2019-04-20T12:09:37.826Z,27.37
2019-04-20T12:13:42.822Z,27.75
2019-04-20T12:17:47.693Z,27.97
2019-04-20T12:21:53.826Z,29.04
2019-04-20T12:25:59.789Z,28.96
2019-04-20T12:30:10.113Z,26.80
2019-04-20T12:34:16.156Z,27.39
2019-04-20T12:38:21.180Z,28.78
2019-04-20T12:42:26.072Z,27.49
2019-04-20T12:46:31.928Z,28.15
2019-04-20T12:50:37.416Z,28.19
2019-04-20T12:54:45.963Z,27.70
2019-04-20T12:58:51.531Z,25.51
2019-04-20T13:02:56.560Z,26.24
2019-04-20T13:07:03.715Z,27.34
2019-04-20T13:11:16.435Z,26.94
2019-04-20T13:15:28.789Z,26.42
2019-04-20T13:19:33.782Z,26.60
2019-04-20T13:23:40.601Z,25.40
2019-04-20T13:27:45.518Z,25.75
2019-04-20T13:31:52.019Z,25.88
2019-04-20T13:35:58.289Z,23.92
2019-04-20T13:40:06.965Z,25.04
2019-04-20T13:44:11.985Z,25.29
2019-04-20T13:48:17.045Z,25.05
2019-04-20T13:52:22.714Z,25.14
2019-04-20T13:56:28.098Z,25.12
2019-04-20T14:00:48.592Z,25.34
2019-04-20T14:04:54.947Z,24.56
2019-04-20T14:09:01.302Z,25.20
2019-04-20T14:13:14.499Z,24.13
2019-04-20T14:17:15.037Z,24.10
2019-04-20T14:21:20.387Z,24.27
2019-04-20T14:25:25.439Z,25.21
2019-04-20T14:29:30.647Z,23.08
2019-04-20T14:33:36.890Z,24.45
2019-04-20T14:37:41.884Z,24.53
2019-04-20T14:41:46.760Z,24.60
2019-04-20T14:45:52.475Z,24.28
2019-04-20T14:50:00.770Z,23.72
2019-04-20T14:54:05.434Z,23.46
2019-04-20T14:58:13.034Z,23.96
2019-04-20T15:02:19.844Z,23.03
2019-04-20T15:06:25.529Z,24.00
2019-04-20T15:10:31.077Z,24.04
2019-04-20T15:14:36.747Z,24.42
2019-04-20T15:18:51.849Z,24.15
2019-04-20T15:22:57.627Z,23.63
2019-04-20T15:27:02.616Z,22.66
2019-04-20T15:31:07.974Z,24.23
2019-04-20T15:35:18.972Z,24.32
2019-04-20T15:39:21.060Z,24.17
2019-04-20T15:43:27.875Z,24.09
2019-04-20T15:47:34.101Z,24.54
2019-04-20T15:51:39.791Z,24.00
2019-04-20T15:55:46.919Z,24.74
2019-04-20T15:59:52.603Z,25.04
2019-04-20T16:03:59.388Z,24.85
2019-04-20T16:08:23.681Z,24.40
2019-04-20T16:12:29.101Z,24.48
2019-04-20T16:16:34.069Z,25.09
2019-04-20T16:20:51.960Z,25.10
2019-04-20T16:24:47.193Z,25.62
2019-04-20T16:28:53.370Z,25.87
2019-04-20T16:32:58.732Z,25.78
2019-04-20T16:37:04.313Z,26.01
2019-04-20T16:41:10.345Z,26.45
2019-04-20T16:45:15.423Z,26.00
2019-04-20T16:49:21.303Z,26.62
2019-04-20T16:53:26.860Z,27.43
2019-04-20T16:57:31.946Z,28.04
2019-04-20T17:01:37.177Z,27.89
2019-04-20T17:05:43.252Z,28.29
2019-04-20T17:09:49.894Z,28.22
2019-04-20T17:13:57.993Z,29.21
2019-04-20T17:18:01.609Z,29.04
2019-04-20T17:22:07.555Z,28.81
2019-04-20T17:26:14.705Z,28.54
2019-04-20T17:30:25.551Z,28.67
2019-04-20T17:34:46.971Z,28.53
2019-04-20T17:38:43.375Z,28.98
2019-04-20T17:42:53.179Z,28.86
2019-04-20T17:47:00.499Z,29.15
2019-04-20T17:51:17.407Z,28.89
2019-04-20T17:55:22.915Z,29.25
2019-04-20T17:59:22.238Z,29.40
2019-04-20T18:04:03.278Z,29.74
2019-04-20T18:07:56.536Z,29.79
2019-04-20T18:11:50.338Z,30.19
2019-04-20T18:16:17.050Z,30.58
2019-04-20T18:20:07.390Z,30.93
2019-04-20T18:24:24.197Z,31.21
2019-04-20T18:28:32.404Z,31.79
2019-04-20T18:32:27.496Z,32.22
2019-04-20T18:36:38.298Z,32.79
2019-04-20T18:40:48.367Z,33.15
2019-04-20T18:45:09.238Z,33.86
2019-04-20T18:49:10.283Z,34.29
2019-04-20T18:53:00.150Z,34.80
2019-04-20T18:57:11.409Z,35.36
2019-04-20T19:01:12.860Z,35.85
2019-04-20T19:05:18.143Z,36.14
2019-04-20T19:09:27.167Z,36.72
2019-04-20T19:13:44.062Z,36.85
2019-04-20T19:17:59.240Z,36.89
2019-04-20T19:21:56.189Z,37.15
2019-04-20T19:26:08.323Z,37.55
2019-04-20T19:30:22.600Z,38.17
2019-04-20T19:34:35.437Z,38.47
2019-04-20T19:38:29.618Z,39.11
2019-04-20T19:42:43.476Z,39.18
2019-04-20T19:47:03.268Z,39.68
2019-04-20T19:51:05.898Z,39.95
2019-04-20T19:55:06.644Z,40.29
2019-04-20T19:59:10.983Z,40.98
2019-04-20T20:03:03.659Z,41.28
2019-04-20T20:07:18.783Z,41.72
2019-04-20T20:11:21.770Z,42.40
2019-04-20T20:15:27.834Z,42.65
2019-04-20T20:19:46.118Z,42.87
2019-04-20T20:23:36.247Z,43.40
2019-04-20T20:27:49.136Z,44.07
2019-04-20T20:32:03.308Z,44.56
2019-04-20T20:36:04.213Z,44.67
2019-04-20T20:40:11.025Z,44.91
2019-04-20T20:44:22.279Z,45.40
2019-04-20T20:48:29.732Z,46.29
2019-04-20T20:52:39.671Z,46.28
2019-04-20T20:56:35.828Z,46.47
2019-04-20T21:00:48.457Z,47.09
2019-04-20T21:04:43.720Z,47.34
2019-04-20T21:08:53.166Z,47.49
2019-04-20T21:12:57.815Z,48.08
2019-04-20T21:17:12.266Z,48.52
2019-04-20T21:21:26.243Z,48.67
2019-04-20T21:25:17.021Z,48.39
2019-04-20T21:29:29.950Z,48.87
2019-04-20T21:33:32.714Z,49.54
2019-04-20T21:37:35.158Z,49.83
2019-04-20T21:41:49.712Z,49.82
2019-04-20T21:45:52.376Z,49.78
2019-04-20T21:50:13.491Z,50.32
2019-04-20T21:54:02.053Z,50.98
2019-04-20T21:58:09.096Z,51.18
2019-04-20T22:02:20.933Z,51.25
2019-04-20T22:06:22.342Z,51.76
2019-04-20T22:10:30.886Z,51.71
2019-04-20T22:14:35.312Z,51.90
2019-04-20T22:18:54.368Z,51.68
2019-04-20T22:22:59.805Z,52.32
2019-04-20T22:27:05.419Z,52.83
2019-04-20T22:31:00.367Z,52.92
2019-04-20T22:35:11.948Z,53.01
2019-04-20T22:39:39.704Z,53.25
2019-04-20T22:43:40.302Z,53.32
2019-04-20T22:47:45.914Z,53.09
2019-04-20T22:51:59.672Z,52.89
2019-04-20T22:56:22.107Z,52.78
2019-04-20T23:00:11.051Z,52.81
2019-04-20T23:04:15.001Z,53.03
2019-04-20T23:08:20.452Z,53.06
2019-04-20T23:12:27.585Z,53.06
2019-04-20T23:16:37.965Z,53.18
2019-04-20T23:20:40.511Z,54.06
2019-04-20T23:24:45.265Z,53.89
2019-04-20T23:28:55.224Z,53.87
2019-04-20T23:32:57.940Z,54.07
2019-04-20T23:37:03.060Z,53.97
2019-04-20T23:41:08.069Z,54.10
2019-04-20T23:45:34.042Z,54.16
2019-04-20T23:49:54.409Z,54.09
2019-04-20T23:53:53.950Z,54.40
2019-04-20T23:57:55.851Z,54.53
